Weather at Achnasheen Airstrip

Public forecast

Using degrees Celsius for public forecast. Weather courtesy of forecast.io.

Closest aviation weather report (METAR) to Achnasheen Airstrip

Closest report is Inverness Airport, 36.8 nm (68.2 km) E.

2024/05/19 23:20 (retrieved 11 minutes ago)

EGPE 192320Z AUTO 09001KT 9999 FEW029/// 11/10 Q1019

Closest aviation forecast (TAF) to Achnasheen Airstrip

Closest forecast is RAF Lossiemouth, 60.0 nm (111.1 km) E.

2024/05/19 21:57 (retrieved 2 hours ago)

TAF EGQS 191948Z 1921/2015 10008KT 9999 FEW020 PROB40 TEMPO 1921/2006 SCT020